sensor_id;sensor_type;location;lat;lon;timestamp;temperature;humidity
13721;DHT22;6932;51.438;5.470;2022-08-02T00:00:51;24.30;60.10
13721;DHT22;6932;51.438;5.470;2022-08-02T00:03:17;24.30;60.10
13721;DHT22;6932;51.438;5.470;2022-08-02T00:05:42;24.20;59.60
13721;DHT22;6932;51.438;5.470;2022-08-02T00:08:08;24.20;60.10
13721;DHT22;6932;51.438;5.470;2022-08-02T00:10:34;24.30;59.70
13721;DHT22;6932;51.438;5.470;2022-08-02T00:13:00;24.20;59.10
13721;DHT22;6932;51.438;5.470;2022-08-02T00:15:26;24.20;59.50
13721;DHT22;6932;51.438;5.470;2022-08-02T00:17:51;24.20;59.70
13721;DHT22;6932;51.438;5.470;2022-08-02T00:20:17;24.30;60.10
13721;DHT22;6932;51.438;5.470;2022-08-02T00:22:43;24.20;59.60
13721;DHT22;6932;51.438;5.470;2022-08-02T00:25:09;24.20;59.20
13721;DHT22;6932;51.438;5.470;2022-08-02T00:27:35;24.20;59.00
13721;DHT22;6932;51.438;5.470;2022-08-02T00:30:00;24.10;58.90
13721;DHT22;6932;51.438;5.470;2022-08-02T00:32:26;24.10;59.00
13721;DHT22;6932;51.438;5.470;2022-08-02T00:34:52;24.10;59.00
13721;DHT22;6932;51.438;5.470;2022-08-02T00:37:17;24.10;59.30
13721;DHT22;6932;51.438;5.470;2022-08-02T00:39:44;24.10;59.50
13721;DHT22;6932;51.438;5.470;2022-08-02T00:42:13;24.10;59.50
13721;DHT22;6932;51.438;5.470;2022-08-02T00:44:40;24.10;59.70
13721;DHT22;6932;51.438;5.470;2022-08-02T00:47:05;24.20;59.80
13721;DHT22;6932;51.438;5.470;2022-08-02T00:49:31;24.10;59.80
13721;DHT22;6932;51.438;5.470;2022-08-02T00:51:57;24.10;60.00
13721;DHT22;6932;51.438;5.470;2022-08-02T00:54:23;24.10;60.00
13721;DHT22;6932;51.438;5.470;2022-08-02T00:56:49;24.10;60.30
13721;DHT22;6932;51.438;5.470;2022-08-02T00:59:15;24.10;60.60
13721;DHT22;6932;51.438;5.470;2022-08-02T01:01:40;24.00;60.80
13721;DHT22;6932;51.438;5.470;2022-08-02T01:04:11;24.00;61.10
13721;DHT22;6932;51.438;5.470;2022-08-02T01:06:41;24.00;61.20
13721;DHT22;6932;51.438;5.470;2022-08-02T01:09:08;24.00;61.20
13721;DHT22;6932;51.438;5.470;2022-08-02T01:11:34;24.00;61.40
13721;DHT22;6932;51.438;5.470;2022-08-02T01:14:04;23.90;61.50
13721;DHT22;6932;51.438;5.470;2022-08-02T01:16:53;23.90;61.70
13721;DHT22;6932;51.438;5.470;2022-08-02T01:21:53;23.80;62.20
13721;DHT22;6932;51.438;5.470;2022-08-02T01:24:51;23.70;62.40
13721;DHT22;6932;51.438;5.470;2022-08-02T01:30:22;23.60;63.00
13721;DHT22;6932;51.438;5.470;2022-08-02T01:32:53;23.60;63.20
13721;DHT22;6932;51.438;5.470;2022-08-02T01:35:31;23.50;63.40
13721;DHT22;6932;51.438;5.470;2022-08-02T01:38:10;23.50;63.60
13721;DHT22;6932;51.438;5.470;2022-08-02T01:40:42;23.50;63.70
13721;DHT22;6932;51.438;5.470;2022-08-02T01:43:10;23.40;63.80
13721;DHT22;6932;51.438;5.470;2022-08-02T01:45:40;23.40;64.00
13721;DHT22;6932;51.438;5.470;2022-08-02T01:48:07;23.40;64.10
13721;DHT22;6932;51.438;5.470;2022-08-02T01:50:35;23.30;64.20
13721;DHT22;6932;51.438;5.470;2022-08-02T01:53:05;23.30;64.40
13721;DHT22;6932;51.438;5.470;2022-08-02T01:55:47;23.30;64.50
13721;DHT22;6932;51.438;5.470;2022-08-02T01:58:16;23.30;64.60
13721;DHT22;6932;51.438;5.470;2022-08-02T02:00:45;23.30;64.80
13721;DHT22;6932;51.438;5.470;2022-08-02T02:03:18;23.30;64.90
13721;DHT22;6932;51.438;5.470;2022-08-02T02:05:47;23.20;65.00
13721;DHT22;6932;51.438;5.470;2022-08-02T02:08:15;23.20;65.00
13721;DHT22;6932;51.438;5.470;2022-08-02T02:10:46;23.20;65.10
13721;DHT22;6932;51.438;5.470;2022-08-02T02:13:13;23.20;65.10
13721;DHT22;6932;51.438;5.470;2022-08-02T02:15:47;23.10;65.20
13721;DHT22;6932;51.438;5.470;2022-08-02T02:18:17;23.10;65.40
13721;DHT22;6932;51.438;5.470;2022-08-02T02:20:47;23.10;65.50
13721;DHT22;6932;51.438;5.470;2022-08-02T02:23:13;23.10;66.00
13721;DHT22;6932;51.438;5.470;2022-08-02T02:25:41;23.00;65.40
13721;DHT22;6932;51.438;5.470;2022-08-02T02:28:12;23.00;65.50
13721;DHT22;6932;51.438;5.470;2022-08-02T02:30:46;23.10;65.60
13721;DHT22;6932;51.438;5.470;2022-08-02T02:33:16;23.00;65.70
13721;DHT22;6932;51.438;5.470;2022-08-02T02:35:45;23.00;65.80
13721;DHT22;6932;51.438;5.470;2022-08-02T02:38:16;23.00;65.90
13721;DHT22;6932;51.438;5.470;2022-08-02T02:40:45;22.90;65.90
13721;DHT22;6932;51.438;5.470;2022-08-02T02:43:13;22.90;66.00
13721;DHT22;6932;51.438;5.470;2022-08-02T02:45:39;22.90;66.00
13721;DHT22;6932;51.438;5.470;2022-08-02T02:48:06;22.90;66.20
13721;DHT22;6932;51.438;5.470;2022-08-02T02:50:35;22.90;66.40
13721;DHT22;6932;51.438;5.470;2022-08-02T02:53:02;22.90;66.60
13721;DHT22;6932;51.438;5.470;2022-08-02T02:55:30;22.90;66.80
13721;DHT22;6932;51.438;5.470;2022-08-02T02:57:56;22.90;67.00
13721;DHT22;6932;51.438;5.470;2022-08-02T03:00:23;22.80;67.00
13721;DHT22;6932;51.438;5.470;2022-08-02T03:03:18;22.80;67.20
13721;DHT22;6932;51.438;5.470;2022-08-02T03:05:45;22.80;67.20
13721;DHT22;6932;51.438;5.470;2022-08-02T03:08:11;22.80;67.40
13721;DHT22;6932;51.438;5.470;2022-08-02T03:10:38;22.80;67.50
13721;DHT22;6932;51.438;5.470;2022-08-02T03:13:04;22.80;67.60
13721;DHT22;6932;51.438;5.470;2022-08-02T03:15:31;22.80;67.80
13721;DHT22;6932;51.438;5.470;2022-08-02T03:17:57;22.80;68.00
13721;DHT22;6932;51.438;5.470;2022-08-02T03:20:22;22.80;68.20
13721;DHT22;6932;51.438;5.470;2022-08-02T03:22:50;22.70;68.30
13721;DHT22;6932;51.438;5.470;2022-08-02T03:25:16;22.80;68.50
13721;DHT22;6932;51.438;5.470;2022-08-02T03:27:42;22.70;68.60
13721;DHT22;6932;51.438;5.470;2022-08-02T03:30:10;22.70;68.70
13721;DHT22;6932;51.438;5.470;2022-08-02T03:32:39;22.70;68.90
13721;DHT22;6932;51.438;5.470;2022-08-02T03:35:10;22.70;69.00
13721;DHT22;6932;51.438;5.470;2022-08-02T03:37:37;22.70;69.20
13721;DHT22;6932;51.438;5.470;2022-08-02T03:40:06;22.70;69.40
13721;DHT22;6932;51.438;5.470;2022-08-02T03:42:34;22.60;69.50
13721;DHT22;6932;51.438;5.470;2022-08-02T03:45:01;22.60;69.60
13721;DHT22;6932;51.438;5.470;2022-08-02T03:47:28;22.60;69.80
13721;DHT22;6932;51.438;5.470;2022-08-02T03:49:56;22.60;70.00
13721;DHT22;6932;51.438;5.470;2022-08-02T03:52:24;22.60;70.10
13721;DHT22;6932;51.438;5.470;2022-08-02T03:54:51;22.60;70.10
13721;DHT22;6932;51.438;5.470;2022-08-02T03:57:16;22.60;70.30
13721;DHT22;6932;51.438;5.470;2022-08-02T03:59:44;22.60;70.40
13721;DHT22;6932;51.438;5.470;2022-08-02T04:02:12;22.60;70.60
13721;DHT22;6932;51.438;5.470;2022-08-02T04:04:38;22.60;70.80
13721;DHT22;6932;51.438;5.470;2022-08-02T04:07:04;22.60;70.90
13721;DHT22;6932;51.438;5.470;2022-08-02T04:09:30;22.60;71.10
13721;DHT22;6932;51.438;5.470;2022-08-02T04:11:56;22.60;71.10
13721;DHT22;6932;51.438;5.470;2022-08-02T04:14:22;22.60;71.20
13721;DHT22;6932;51.438;5.470;2022-08-02T04:16:56;22.60;71.30
13721;DHT22;6932;51.438;5.470;2022-08-02T04:22:06;22.60;71.50
13721;DHT22;6932;51.438;5.470;2022-08-02T04:24:40;22.60;71.60
13721;DHT22;6932;51.438;5.470;2022-08-02T04:27:09;22.60;71.80
13721;DHT22;6932;51.438;5.470;2022-08-02T04:29:37;22.60;72.00
13721;DHT22;6932;51.438;5.470;2022-08-02T04:32:04;22.60;72.10
13721;DHT22;6932;51.438;5.470;2022-08-02T04:34:31;22.60;72.30
13721;DHT22;6932;51.438;5.470;2022-08-02T04:36:59;22.60;72.50
13721;DHT22;6932;51.438;5.470;2022-08-02T04:39:26;22.60;72.80
13721;DHT22;6932;51.438;5.470;2022-08-02T04:41:52;22.60;73.00
13721;DHT22;6932;51.438;5.470;2022-08-02T04:44:18;22.70;73.20
13721;DHT22;6932;51.438;5.470;2022-08-02T04:46:44;22.70;73.30
13721;DHT22;6932;51.438;5.470;2022-08-02T04:49:11;22.70;73.40
13721;DHT22;6932;51.438;5.470;2022-08-02T04:51:38;22.70;73.60
13721;DHT22;6932;51.438;5.470;2022-08-02T04:54:06;22.70;73.80
13721;DHT22;6932;51.438;5.470;2022-08-02T04:56:33;22.80;73.80
13721;DHT22;6932;51.438;5.470;2022-08-02T04:58:59;22.80;73.80
13721;DHT22;6932;51.438;5.470;2022-08-02T05:01:25;22.70;73.90
13721;DHT22;6932;51.438;5.470;2022-08-02T05:03:51;22.80;74.10
13721;DHT22;6932;51.438;5.470;2022-08-02T05:06:16;22.80;74.10
13721;DHT22;6932;51.438;5.470;2022-08-02T05:08:44;22.80;74.10
13721;DHT22;6932;51.438;5.470;2022-08-02T05:11:11;22.80;74.10
13721;DHT22;6932;51.438;5.470;2022-08-02T05:13:37;22.80;74.40
13721;DHT22;6932;51.438;5.470;2022-08-02T05:16:02;22.80;74.70
13721;DHT22;6932;51.438;5.470;2022-08-02T05:18:29;22.80;75.10
13721;DHT22;6932;51.438;5.470;2022-08-02T05:20:55;22.80;76.10
13721;DHT22;6932;51.438;5.470;2022-08-02T05:23:21;22.80;75.60
13721;DHT22;6932;51.438;5.470;2022-08-02T05:25:47;22.80;75.80
13721;DHT22;6932;51.438;5.470;2022-08-02T05:28:12;22.80;76.20
13721;DHT22;6932;51.438;5.470;2022-08-02T05:30:39;22.80;76.40
13721;DHT22;6932;51.438;5.470;2022-08-02T05:33:05;22.80;76.50
13721;DHT22;6932;51.438;5.470;2022-08-02T05:35:30;22.80;76.80
13721;DHT22;6932;51.438;5.470;2022-08-02T05:37:56;22.80;77.10
13721;DHT22;6932;51.438;5.470;2022-08-02T05:40:22;22.90;77.70
13721;DHT22;6932;51.438;5.470;2022-08-02T05:42:48;22.90;77.80
13721;DHT22;6932;51.438;5.470;2022-08-02T05:45:13;23.00;78.00
13721;DHT22;6932;51.438;5.470;2022-08-02T05:47:39;23.00;78.20
13721;DHT22;6932;51.438;5.470;2022-08-02T05:50:06;23.10;78.30
13721;DHT22;6932;51.438;5.470;2022-08-02T05:52:51;23.20;78.50
13721;DHT22;6932;51.438;5.470;2022-08-02T05:55:32;23.30;78.40
13721;DHT22;6932;51.438;5.470;2022-08-02T05:58:10;23.50;78.50
13721;DHT22;6932;51.438;5.470;2022-08-02T06:00:42;23.60;78.50
13721;DHT22;6932;51.438;5.470;2022-08-02T06:03:22;23.80;78.60
13721;DHT22;6932;51.438;5.470;2022-08-02T06:06:03;24.00;78.60
13721;DHT22;6932;51.438;5.470;2022-08-02T06:08:40;24.10;78.50
13721;DHT22;6932;51.438;5.470;2022-08-02T06:11:14;24.30;78.50
13721;DHT22;6932;51.438;5.470;2022-08-02T06:13:42;24.50;78.60
13721;DHT22;6932;51.438;5.470;2022-08-02T06:16:10;24.60;78.20
13721;DHT22;6932;51.438;5.470;2022-08-02T06:18:36;24.80;77.90
13721;DHT22;6932;51.438;5.470;2022-08-02T06:21:05;24.90;78.00
13721;DHT22;6932;51.438;5.470;2022-08-02T06:23:33;25.00;77.80
13721;DHT22;6932;51.438;5.470;2022-08-02T06:26:02;25.10;77.50
13721;DHT22;6932;51.438;5.470;2022-08-02T06:28:29;25.20;77.30
13721;DHT22;6932;51.438;5.470;2022-08-02T06:30:55;25.30;77.40
13721;DHT22;6932;51.438;5.470;2022-08-02T06:33:23;25.40;77.40
13721;DHT22;6932;51.438;5.470;2022-08-02T06:36:09;25.40;77.20
13721;DHT22;6932;51.438;5.470;2022-08-02T06:39:01;25.50;77.20
13721;DHT22;6932;51.438;5.470;2022-08-02T06:41:40;25.60;77.00
13721;DHT22;6932;51.438;5.470;2022-08-02T06:44:07;25.70;77.00
13721;DHT22;6932;51.438;5.470;2022-08-02T06:46:33;25.70;77.10
13721;DHT22;6932;51.438;5.470;2022-08-02T06:49:00;25.80;77.00
13721;DHT22;6932;51.438;5.470;2022-08-02T06:51:27;26.00;77.20
13721;DHT22;6932;51.438;5.470;2022-08-02T06:53:53;26.00;77.00
13721;DHT22;6932;51.438;5.470;2022-08-02T06:56:19;26.10;76.90
13721;DHT22;6932;51.438;5.470;2022-08-02T06:58:45;26.20;76.70
13721;DHT22;6932;51.438;5.470;2022-08-02T07:01:11;26.40;76.80
13721;DHT22;6932;51.438;5.470;2022-08-02T07:03:38;26.50;76.80
13721;DHT22;6932;51.438;5.470;2022-08-02T07:06:06;26.60;76.80
13721;DHT22;6932;51.438;5.470;2022-08-02T07:08:34;26.80;76.50
13721;DHT22;6932;51.438;5.470;2022-08-02T07:11:03;27.00;76.40
13721;DHT22;6932;51.438;5.470;2022-08-02T07:13:30;27.10;76.30
13721;DHT22;6932;51.438;5.470;2022-08-02T07:15:56;27.20;76.20
13721;DHT22;6932;51.438;5.470;2022-08-02T07:18:24;27.40;75.90
13721;DHT22;6932;51.438;5.470;2022-08-02T07:20:50;27.50;75.70
13721;DHT22;6932;51.438;5.470;2022-08-02T07:23:17;27.70;76.30
13721;DHT22;6932;51.438;5.470;2022-08-02T07:25:43;27.80;75.30
13721;DHT22;6932;51.438;5.470;2022-08-02T07:28:10;27.90;75.20
13721;DHT22;6932;51.438;5.470;2022-08-02T07:30:37;28.00;74.90
13721;DHT22;6932;51.438;5.470;2022-08-02T07:33:03;28.10;74.70
13721;DHT22;6932;51.438;5.470;2022-08-02T07:35:29;28.20;74.80
13721;DHT22;6932;51.438;5.470;2022-08-02T07:37:55;28.20;74.50
13721;DHT22;6932;51.438;5.470;2022-08-02T07:40:22;28.30;74.40
13721;DHT22;6932;51.438;5.470;2022-08-02T07:42:49;28.40;74.50
13721;DHT22;6932;51.438;5.470;2022-08-02T07:45:18;28.40;74.10
13721;DHT22;6932;51.438;5.470;2022-08-02T07:47:45;28.50;74.00
13721;DHT22;6932;51.438;5.470;2022-08-02T07:50:12;28.50;73.90
13721;DHT22;6932;51.438;5.470;2022-08-02T07:52:41;28.60;73.40
13721;DHT22;6932;51.438;5.470;2022-08-02T07:55:08;28.70;73.30
13721;DHT22;6932;51.438;5.470;2022-08-02T07:57:38;28.80;73.40
13721;DHT22;6932;51.438;5.470;2022-08-02T08:00:06;28.80;73.10
13721;DHT22;6932;51.438;5.470;2022-08-02T08:02:34;28.90;72.70
13721;DHT22;6932;51.438;5.470;2022-08-02T08:05:00;29.00;72.40
13721;DHT22;6932;51.438;5.470;2022-08-02T08:07:26;29.10;72.40
13721;DHT22;6932;51.438;5.470;2022-08-02T08:09:52;29.20;71.80
13721;DHT22;6932;51.438;5.470;2022-08-02T08:12:18;29.30;71.30
13721;DHT22;6932;51.438;5.470;2022-08-02T08:14:43;29.50;71.10
13721;DHT22;6932;51.438;5.470;2022-08-02T08:17:09;29.60;70.80
13721;DHT22;6932;51.438;5.470;2022-08-02T08:19:35;29.70;70.50
13721;DHT22;6932;51.438;5.470;2022-08-02T08:22:01;29.80;69.80
13721;DHT22;6932;51.438;5.470;2022-08-02T08:24:28;29.80;68.90
13721;DHT22;6932;51.438;5.470;2022-08-02T08:26:54;29.90;68.40
13721;DHT22;6932;51.438;5.470;2022-08-02T08:29:21;30.00;68.50
13721;DHT22;6932;51.438;5.470;2022-08-02T08:31:47;30.10;68.70
13721;DHT22;6932;51.438;5.470;2022-08-02T08:34:13;30.10;68.60
13721;DHT22;6932;51.438;5.470;2022-08-02T08:36:40;30.10;68.20
13721;DHT22;6932;51.438;5.470;2022-08-02T08:39:06;30.20;68.70
13721;DHT22;6932;51.438;5.470;2022-08-02T08:41:32;30.20;68.80
13721;DHT22;6932;51.438;5.470;2022-08-02T08:44:00;30.40;69.00
13721;DHT22;6932;51.438;5.470;2022-08-02T08:46:29;30.50;68.70
13721;DHT22;6932;51.438;5.470;2022-08-02T08:49:19;30.50;68.10
13721;DHT22;6932;51.438;5.470;2022-08-02T08:51:53;30.70;66.90
13721;DHT22;6932;51.438;5.470;2022-08-02T08:54:22;30.80;66.20
13721;DHT22;6932;51.438;5.470;2022-08-02T08:56:54;30.80;65.90
13721;DHT22;6932;51.438;5.470;2022-08-02T08:59:20;30.90;65.90
13721;DHT22;6932;51.438;5.470;2022-08-02T09:01:46;30.90;65.80
13721;DHT22;6932;51.438;5.470;2022-08-02T09:04:14;30.90;65.90
13721;DHT22;6932;51.438;5.470;2022-08-02T09:06:40;30.90;66.00
13721;DHT22;6932;51.438;5.470;2022-08-02T09:09:06;31.00;66.10
13721;DHT22;6932;51.438;5.470;2022-08-02T09:11:32;31.00;66.10
13721;DHT22;6932;51.438;5.470;2022-08-02T09:14:00;31.00;66.30
13721;DHT22;6932;51.438;5.470;2022-08-02T09:19:00;31.00;66.80
13721;DHT22;6932;51.438;5.470;2022-08-02T09:21:41;31.00;66.70
13721;DHT22;6932;51.438;5.470;2022-08-02T09:24:18;31.00;66.70
13721;DHT22;6932;51.438;5.470;2022-08-02T09:26:49;31.10;67.00
13721;DHT22;6932;51.438;5.470;2022-08-02T09:29:17;31.10;66.60
13721;DHT22;6932;51.438;5.470;2022-08-02T09:31:47;31.20;66.50
13721;DHT22;6932;51.438;5.470;2022-08-02T09:34:14;31.20;66.20
13721;DHT22;6932;51.438;5.470;2022-08-02T09:36:42;31.30;65.70
13721;DHT22;6932;51.438;5.470;2022-08-02T09:39:11;31.40;65.50
13721;DHT22;6932;51.438;5.470;2022-08-02T09:41:42;31.50;65.30
13721;DHT22;6932;51.438;5.470;2022-08-02T09:44:12;31.60;64.90
13721;DHT22;6932;51.438;5.470;2022-08-02T09:46:41;31.70;64.80
13721;DHT22;6932;51.438;5.470;2022-08-02T09:49:12;31.70;64.20
13721;DHT22;6932;51.438;5.470;2022-08-02T09:51:50;31.80;63.40
13721;DHT22;6932;51.438;5.470;2022-08-02T09:54:23;31.80;63.00
13721;DHT22;6932;51.438;5.470;2022-08-02T09:56:52;31.90;62.30
13721;DHT22;6932;51.438;5.470;2022-08-02T09:59:22;32.00;62.30
13721;DHT22;6932;51.438;5.470;2022-08-02T10:01:50;32.00;61.80
13721;DHT22;6932;51.438;5.470;2022-08-02T10:04:19;32.00;61.50
13721;DHT22;6932;51.438;5.470;2022-08-02T10:06:50;32.10;61.30
13721;DHT22;6932;51.438;5.470;2022-08-02T10:09:18;32.10;61.30
13721;DHT22;6932;51.438;5.470;2022-08-02T10:11:45;32.20;61.60
13721;DHT22;6932;51.438;5.470;2022-08-02T10:14:12;32.20;61.20
13721;DHT22;6932;51.438;5.470;2022-08-02T10:16:40;32.20;60.50
13721;DHT22;6932;51.438;5.470;2022-08-02T10:19:07;32.30;60.50
13721;DHT22;6932;51.438;5.470;2022-08-02T10:21:56;32.40;60.20
13721;DHT22;6932;51.438;5.470;2022-08-02T10:24:30;32.40;60.00
13721;DHT22;6932;51.438;5.470;2022-08-02T10:26:58;32.50;59.60
13721;DHT22;6932;51.438;5.470;2022-08-02T10:29:38;32.60;59.40
13721;DHT22;6932;51.438;5.470;2022-08-02T10:32:10;32.60;60.10
13721;DHT22;6932;51.438;5.470;2022-08-02T10:34:52;32.70;59.30
13721;DHT22;6932;51.438;5.470;2022-08-02T10:37:28;32.70;59.10
13721;DHT22;6932;51.438;5.470;2022-08-02T10:39:57;32.80;58.00
13721;DHT22;6932;51.438;5.470;2022-08-02T10:45:18;32.80;57.80
13721;DHT22;6932;51.438;5.470;2022-08-02T10:48:03;32.90;57.70
13721;DHT22;6932;51.438;5.470;2022-08-02T10:55:58;32.90;58.00
13721;DHT22;6932;51.438;5.470;2022-08-02T10:58:26;33.00;57.40
13721;DHT22;6932;51.438;5.470;2022-08-02T11:00:56;32.90;55.90
13721;DHT22;6932;51.438;5.470;2022-08-02T11:06:07;32.90;55.50
13721;DHT22;6932;51.438;5.470;2022-08-02T11:08:37;32.90;55.90
13721;DHT22;6932;51.438;5.470;2022-08-02T11:14:04;32.90;57.20
13721;DHT22;6932;51.438;5.470;2022-08-02T11:19:22;32.90;56.10
13721;DHT22;6932;51.438;5.470;2022-08-02T11:24:38;32.90;55.60
13721;DHT22;6932;51.438;5.470;2022-08-02T11:27:15;33.00;55.20
13721;DHT22;6932;51.438;5.470;2022-08-02T11:29:44;32.90;55.00
13721;DHT22;6932;51.438;5.470;2022-08-02T11:32:21;33.00;54.90
13721;DHT22;6932;51.438;5.470;2022-08-02T11:34:51;33.00;54.60
13721;DHT22;6932;51.438;5.470;2022-08-02T11:37:38;33.00;54.60
13721;DHT22;6932;51.438;5.470;2022-08-02T11:40:11;33.00;54.60
13721;DHT22;6932;51.438;5.470;2022-08-02T11:42:40;33.00;54.30
13721;DHT22;6932;51.438;5.470;2022-08-02T11:45:09;33.00;54.50
13721;DHT22;6932;51.438;5.470;2022-08-02T11:47:49;33.00;53.50
13721;DHT22;6932;51.438;5.470;2022-08-02T11:50:18;33.00;53.80
13721;DHT22;6932;51.438;5.470;2022-08-02T11:52:45;33.00;53.90
13721;DHT22;6932;51.438;5.470;2022-08-02T11:55:11;33.00;54.10
13721;DHT22;6932;51.438;5.470;2022-08-02T11:57:39;33.10;54.30
13721;DHT22;6932;51.438;5.470;2022-08-02T12:00:14;33.10;54.30
13721;DHT22;6932;51.438;5.470;2022-08-02T12:02:45;33.10;54.50
13721;DHT22;6932;51.438;5.470;2022-08-02T12:05:17;33.10;55.30
13721;DHT22;6932;51.438;5.470;2022-08-02T12:07:45;33.20;55.00
13721;DHT22;6932;51.438;5.470;2022-08-02T12:10:17;33.20;55.20
13721;DHT22;6932;51.438;5.470;2022-08-02T12:12:57;33.20;55.40
13721;DHT22;6932;51.438;5.470;2022-08-02T12:15:38;33.20;55.70
13721;DHT22;6932;51.438;5.470;2022-08-02T12:18:32;33.20;55.60
13721;DHT22;6932;51.438;5.470;2022-08-02T12:21:24;33.20;55.00
13721;DHT22;6932;51.438;5.470;2022-08-02T12:23:52;33.30;54.50
13721;DHT22;6932;51.438;5.470;2022-08-02T12:26:18;33.30;54.10
13721;DHT22;6932;51.438;5.470;2022-08-02T12:28:44;33.30;54.00
13721;DHT22;6932;51.438;5.470;2022-08-02T12:31:11;33.30;53.80
13721;DHT22;6932;51.438;5.470;2022-08-02T12:33:47;33.20;53.70
13721;DHT22;6932;51.438;5.470;2022-08-02T12:38:52;33.20;53.30
13721;DHT22;6932;51.438;5.470;2022-08-02T12:41:18;33.20;53.50
13721;DHT22;6932;51.438;5.470;2022-08-02T12:43:44;33.20;54.10
13721;DHT22;6932;51.438;5.470;2022-08-02T12:46:21;33.20;54.20
13721;DHT22;6932;51.438;5.470;2022-08-02T12:48:48;33.20;54.00
13721;DHT22;6932;51.438;5.470;2022-08-02T12:51:37;33.20;53.90
13721;DHT22;6932;51.438;5.470;2022-08-02T12:56:46;33.20;53.20
13721;DHT22;6932;51.438;5.470;2022-08-02T12:59:14;33.20;52.90
13721;DHT22;6932;51.438;5.470;2022-08-02T13:01:41;33.10;53.00
13721;DHT22;6932;51.438;5.470;2022-08-02T13:04:07;33.10;53.00
13721;DHT22;6932;51.438;5.470;2022-08-02T13:06:33;33.10;53.00
13721;DHT22;6932;51.438;5.470;2022-08-02T13:08:59;33.10;53.20
13721;DHT22;6932;51.438;5.470;2022-08-02T13:11:26;33.10;53.50
13721;DHT22;6932;51.438;5.470;2022-08-02T13:13:52;33.10;53.50
13721;DHT22;6932;51.438;5.470;2022-08-02T13:16:18;33.10;53.70
13721;DHT22;6932;51.438;5.470;2022-08-02T13:18:44;33.20;53.70
13721;DHT22;6932;51.438;5.470;2022-08-02T13:21:11;33.20;53.80
13721;DHT22;6932;51.438;5.470;2022-08-02T13:23:37;33.20;53.20
13721;DHT22;6932;51.438;5.470;2022-08-02T13:26:03;33.20;52.70
13721;DHT22;6932;51.438;5.470;2022-08-02T13:28:30;33.30;52.70
13721;DHT22;6932;51.438;5.470;2022-08-02T13:30:55;33.30;52.50
13721;DHT22;6932;51.438;5.470;2022-08-02T13:33:21;33.30;52.30
13721;DHT22;6932;51.438;5.470;2022-08-02T13:35:48;33.30;52.30
13721;DHT22;6932;51.438;5.470;2022-08-02T13:38:14;33.40;52.40
13721;DHT22;6932;51.438;5.470;2022-08-02T13:40:40;33.30;52.10
13721;DHT22;6932;51.438;5.470;2022-08-02T13:43:25;33.40;51.90
13721;DHT22;6932;51.438;5.470;2022-08-02T13:45:51;33.30;51.70
13721;DHT22;6932;51.438;5.470;2022-08-02T13:48:17;33.40;51.50
13721;DHT22;6932;51.438;5.470;2022-08-02T13:50:43;33.40;51.70
13721;DHT22;6932;51.438;5.470;2022-08-02T13:53:09;33.40;51.70
13721;DHT22;6932;51.438;5.470;2022-08-02T13:55:35;33.30;51.80
13721;DHT22;6932;51.438;5.470;2022-08-02T13:58:01;33.30;52.00
13721;DHT22;6932;51.438;5.470;2022-08-02T14:00:29;33.30;52.30
13721;DHT22;6932;51.438;5.470;2022-08-02T14:02:54;33.30;52.40
13721;DHT22;6932;51.438;5.470;2022-08-02T14:05:20;33.30;53.30
13721;DHT22;6932;51.438;5.470;2022-08-02T14:07:46;33.30;52.70
13721;DHT22;6932;51.438;5.470;2022-08-02T14:10:11;33.30;52.90
13721;DHT22;6932;51.438;5.470;2022-08-02T14:12:37;33.30;52.90
13721;DHT22;6932;51.438;5.470;2022-08-02T14:15:03;33.30;53.20
13721;DHT22;6932;51.438;5.470;2022-08-02T14:17:29;33.30;53.30
13721;DHT22;6932;51.438;5.470;2022-08-02T14:19:55;33.30;53.30
13721;DHT22;6932;51.438;5.470;2022-08-02T14:22:20;33.30;53.40
13721;DHT22;6932;51.438;5.470;2022-08-02T14:24:46;33.40;53.50
13721;DHT22;6932;51.438;5.470;2022-08-02T14:27:12;33.30;53.50
13721;DHT22;6932;51.438;5.470;2022-08-02T14:29:37;33.40;54.20
13721;DHT22;6932;51.438;5.470;2022-08-02T14:32:03;33.40;53.50
13721;DHT22;6932;51.438;5.470;2022-08-02T14:34:29;33.30;53.60
13721;DHT22;6932;51.438;5.470;2022-08-02T14:36:56;33.40;53.60
13721;DHT22;6932;51.438;5.470;2022-08-02T14:39:21;33.40;53.70
13721;DHT22;6932;51.438;5.470;2022-08-02T14:41:47;33.40;53.90
13721;DHT22;6932;51.438;5.470;2022-08-02T14:44:13;33.40;54.00
13721;DHT22;6932;51.438;5.470;2022-08-02T14:46:39;33.40;54.00
13721;DHT22;6932;51.438;5.470;2022-08-02T14:49:07;33.40;54.30
13721;DHT22;6932;51.438;5.470;2022-08-02T14:51:36;33.40;54.50
13721;DHT22;6932;51.438;5.470;2022-08-02T14:54:04;33.40;54.60
13721;DHT22;6932;51.438;5.470;2022-08-02T14:56:31;33.40;55.40
13721;DHT22;6932;51.438;5.470;2022-08-02T14:58:58;33.30;54.70
13721;DHT22;6932;51.438;5.470;2022-08-02T15:01:24;33.40;54.90
13721;DHT22;6932;51.438;5.470;2022-08-02T15:03:51;33.30;54.80
13721;DHT22;6932;51.438;5.470;2022-08-02T15:06:17;33.40;55.00
13721;DHT22;6932;51.438;5.470;2022-08-02T15:08:42;33.30;55.10
13721;DHT22;6932;51.438;5.470;2022-08-02T15:11:08;33.30;55.20
13721;DHT22;6932;51.438;5.470;2022-08-02T15:13:34;33.30;55.50
13721;DHT22;6932;51.438;5.470;2022-08-02T15:16:00;33.30;55.50
13721;DHT22;6932;51.438;5.470;2022-08-02T15:18:26;33.30;55.50
13721;DHT22;6932;51.438;5.470;2022-08-02T15:20:52;33.30;55.70
13721;DHT22;6932;51.438;5.470;2022-08-02T15:23:19;33.30;55.80
13721;DHT22;6932;51.438;5.470;2022-08-02T15:25:44;33.30;56.00
13721;DHT22;6932;51.438;5.470;2022-08-02T15:28:10;33.30;56.10
13721;DHT22;6932;51.438;5.470;2022-08-02T15:30:36;33.30;56.10
13721;DHT22;6932;51.438;5.470;2022-08-02T15:33:05;33.20;56.10
13721;DHT22;6932;51.438;5.470;2022-08-02T15:35:32;33.20;56.10
13721;DHT22;6932;51.438;5.470;2022-08-02T15:37:58;33.30;56.40
13721;DHT22;6932;51.438;5.470;2022-08-02T15:40:24;33.30;56.60
13721;DHT22;6932;51.438;5.470;2022-08-02T15:42:50;33.30;56.60
13721;DHT22;6932;51.438;5.470;2022-08-02T15:45:16;33.30;56.30
13721;DHT22;6932;51.438;5.470;2022-08-02T15:47:43;33.30;56.30
13721;DHT22;6932;51.438;5.470;2022-08-02T15:50:10;33.20;56.50
13721;DHT22;6932;51.438;5.470;2022-08-02T15:52:36;33.20;56.70
13721;DHT22;6932;51.438;5.470;2022-08-02T15:55:02;33.20;56.80
13721;DHT22;6932;51.438;5.470;2022-08-02T15:57:28;33.20;56.80
13721;DHT22;6932;51.438;5.470;2022-08-02T15:59:54;33.20;56.80
13721;DHT22;6932;51.438;5.470;2022-08-02T16:02:21;33.20;56.90
13721;DHT22;6932;51.438;5.470;2022-08-02T16:04:47;33.20;56.60
13721;DHT22;6932;51.438;5.470;2022-08-02T16:07:13;33.20;56.70
13721;DHT22;6932;51.438;5.470;2022-08-02T16:09:39;33.20;56.70
13721;DHT22;6932;51.438;5.470;2022-08-02T16:12:05;33.20;56.80
13721;DHT22;6932;51.438;5.470;2022-08-02T16:14:33;33.20;56.80
13721;DHT22;6932;51.438;5.470;2022-08-02T16:16:59;33.20;56.80
13721;DHT22;6932;51.438;5.470;2022-08-02T16:19:26;33.20;57.00
13721;DHT22;6932;51.438;5.470;2022-08-02T16:21:53;33.20;57.10
13721;DHT22;6932;51.438;5.470;2022-08-02T16:24:19;33.20;57.20
13721;DHT22;6932;51.438;5.470;2022-08-02T16:26:46;33.20;57.20
13721;DHT22;6932;51.438;5.470;2022-08-02T16:29:12;33.20;57.30